createdAt,value
2023-04-11T00:01:32.403Z,97530.55
2023-04-11T00:04:01.025Z,97532.65
2023-04-11T00:06:29.672Z,97533.50
2023-04-11T00:08:57.940Z,97531.75
2023-04-11T00:11:26.223Z,97528.10
2023-04-11T00:13:57.791Z,97523.05
2023-04-11T00:16:27.250Z,97518.52
2023-04-11T00:18:57.721Z,97516.25
2023-04-11T00:21:26.308Z,97512.78
2023-04-11T00:23:54.336Z,97515.92
2023-04-11T00:26:22.308Z,97515.42
2023-04-11T00:28:50.346Z,97519.29
2023-04-11T00:31:18.363Z,97515.13
2023-04-11T00:33:46.305Z,97508.73
2023-04-11T00:36:14.528Z,97509.29
2023-04-11T00:38:42.555Z,97510.36
2023-04-11T00:41:11.026Z,97508.48
2023-04-11T00:43:39.033Z,97512.14
2023-04-11T00:46:09.537Z,97515.98
2023-04-11T00:48:37.866Z,97517.73
2023-04-11T00:51:06.025Z,97516.19
2023-04-11T00:53:37.287Z,97518.32
2023-04-11T00:56:05.619Z,97518.86
2023-04-11T00:58:34.689Z,97514.49
2023-04-11T01:01:09.394Z,97512.41
2023-04-11T01:03:41.452Z,97513.64
2023-04-11T01:06:12.130Z,97513.13
2023-04-11T01:08:43.364Z,97510.02
2023-04-11T01:11:12.903Z,97508.11
2023-04-11T01:13:42.609Z,97507.10
2023-04-11T01:16:12.064Z,97509.22
2023-04-11T01:18:40.064Z,97507.67
2023-04-11T01:21:09.908Z,97506.45
2023-04-11T01:23:38.260Z,97510.81
2023-04-11T01:26:06.618Z,97511.16
2023-04-11T01:28:34.678Z,97511.51
2023-04-11T01:31:04.249Z,97512.57
2023-04-11T01:33:32.896Z,97512.95
2023-04-11T01:36:01.440Z,97511.41
2023-04-11T01:38:29.718Z,97507.23
2023-04-11T01:40:59.082Z,97510.02
2023-04-11T01:43:27.642Z,97505.87
2023-04-11T01:45:55.945Z,97501.73
2023-04-11T01:48:24.015Z,97507.30
2023-04-11T01:50:53.527Z,97508.55
2023-04-11T01:53:21.461Z,97504.93
2023-04-11T01:55:49.380Z,97505.13
2023-04-11T01:58:17.456Z,97504.11
2023-04-11T02:00:45.465Z,97499.27
2023-04-11T02:03:13.627Z,97501.86
2023-04-11T02:05:43.089Z,97502.22
2023-04-11T02:08:11.558Z,97502.56
2023-04-11T02:10:39.487Z,97497.17
2023-04-11T02:13:07.374Z,97493.54
2023-04-11T02:15:35.374Z,97492.16
2023-04-11T02:18:03.559Z,97489.55
2023-04-11T02:20:31.937Z,97487.66
2023-04-11T02:23:03.639Z,97484.39
2023-04-11T02:25:31.579Z,97481.80
2023-04-11T02:28:00.971Z,97478.88
2023-04-11T02:30:29.092Z,97479.77
2023-04-11T02:32:57.050Z,97479.10
2023-04-11T02:35:24.983Z,97474.60
2023-04-11T02:37:52.889Z,97472.89
2023-04-11T02:40:20.761Z,97474.80
2023-04-11T02:42:48.675Z,97478.63
2023-04-11T02:45:18.399Z,97475.70
2023-04-11T02:47:46.372Z,97475.19
2023-04-11T02:50:14.316Z,97474.66
2023-04-11T02:52:49.403Z,97470.70
2023-04-11T02:55:19.381Z,97472.09
2023-04-11T02:57:47.468Z,97471.91
2023-04-11T03:00:20.441Z,97474.15
2023-04-11T03:02:52.104Z,97476.58
2023-04-11T03:05:22.929Z,97475.02
2023-04-11T03:07:53.135Z,97469.30
2023-04-11T03:10:21.126Z,97468.29
2023-04-11T03:12:49.092Z,97462.92
2023-04-11T03:15:17.858Z,97462.76
2023-04-11T03:17:45.903Z,97463.11
2023-04-11T03:20:19.803Z,97462.95
2023-04-11T03:22:51.244Z,97460.70
2023-04-11T03:25:20.198Z,97461.73
2023-04-11T03:27:49.477Z,97464.85
2023-04-11T03:30:17.610Z,97466.92
2023-04-11T03:32:47.918Z,97464.15
2023-04-11T03:35:17.534Z,97466.05
2023-04-11T03:37:47.872Z,97461.72
2023-04-11T03:40:18.786Z,97457.91
2023-04-11T03:42:51.237Z,97455.31
2023-04-11T03:45:22.689Z,97454.27
2023-04-11T03:47:51.716Z,97453.60
2023-04-11T03:50:21.972Z,97454.81
2023-04-11T03:52:51.838Z,97458.09
2023-04-11T03:55:20.778Z,97455.84
2023-04-11T03:57:48.957Z,97456.70
2023-04-11T04:00:20.957Z,97463.61
2023-04-11T04:02:57.172Z,97459.80
2023-04-11T04:05:26.181Z,97458.25
2023-04-11T04:07:55.925Z,97455.14
2023-04-11T04:10:35.776Z,97452.35
2023-04-11T04:13:03.824Z,97452.17
2023-04-11T04:15:42.595Z,97449.23
2023-04-11T04:18:11.727Z,97450.79
2023-04-11T04:20:49.490Z,97457.00
2023-04-11T04:23:18.417Z,97460.12
2023-04-11T04:26:25.134Z,97465.14
2023-04-11T04:29:05.880Z,97462.91
2023-04-11T04:31:50.776Z,97461.88
2023-04-11T04:34:22.054Z,97459.45
2023-04-11T04:36:50.452Z,97452.90
2023-04-11T04:39:25.842Z,97449.27
2023-04-11T04:42:00.689Z,97447.02
2023-04-11T04:44:34.163Z,97445.64
2023-04-11T04:47:05.544Z,97445.80
2023-04-11T04:49:33.468Z,97445.11
2023-04-11T04:52:02.584Z,97445.27
2023-04-11T04:54:32.333Z,97443.20
2023-04-11T04:57:01.827Z,97446.14
2023-04-11T04:59:29.845Z,97446.84
2023-04-11T05:02:03.665Z,97449.23
2023-04-11T05:04:34.553Z,97452.35
2023-04-11T05:07:03.785Z,97452.69
2023-04-11T05:09:32.585Z,97454.75
2023-04-11T05:12:10.947Z,97454.74
2023-04-11T05:14:40.042Z,97450.57
2023-04-11T05:17:08.176Z,97447.08
2023-04-11T05:19:36.313Z,97446.41
2023-04-11T05:22:04.591Z,97445.64
2023-04-11T05:24:34.150Z,97440.44
2023-04-11T05:27:02.959Z,97437.02
2023-04-11T05:29:31.850Z,97436.89
2023-04-11T05:32:01.112Z,97434.27
2023-04-11T05:34:32.878Z,97431.91
2023-04-11T05:37:01.498Z,97428.83
2023-04-11T05:39:29.757Z,97422.75
2023-04-11T05:41:58.139Z,97417.16
2023-04-11T05:44:26.166Z,97411.09
2023-04-11T05:46:54.059Z,97404.80
2023-04-11T05:49:22.319Z,97396.30
2023-04-11T05:51:50.323Z,97393.65
2023-04-11T05:54:37.779Z,97388.98
2023-04-11T05:57:07.997Z,97388.66
2023-04-11T05:59:36.258Z,97385.13
2023-04-11T06:02:04.596Z,97384.30
2023-04-11T06:04:32.856Z,97380.52
2023-04-11T06:07:04.005Z,97378.35
2023-04-11T06:09:33.960Z,97378.67
2023-04-11T06:12:03.666Z,97379.55
2023-04-11T06:14:33.544Z,97373.77
2023-04-11T06:17:01.552Z,97372.89
2023-04-11T06:19:29.612Z,97372.39
2023-04-11T06:21:57.707Z,97374.17
2023-04-11T06:24:40.633Z,97372.77
2023-04-11T06:27:12.173Z,97368.86
2023-04-11T06:29:44.026Z,97366.11
2023-04-11T06:32:13.283Z,97362.26
2023-04-11T06:34:41.987Z,97359.36
2023-04-11T06:37:11.347Z,97356.52
2023-04-11T06:39:39.791Z,97356.39
2023-04-11T06:42:08.190Z,97351.25
2023-04-11T06:44:36.738Z,97347.66
2023-04-11T06:47:05.026Z,97344.64
2023-04-11T06:49:34.113Z,97344.11
2023-04-11T06:52:04.729Z,97341.70
2023-04-11T06:54:32.920Z,97338.52
2023-04-11T06:57:03.585Z,97338.73
2023-04-11T06:59:32.813Z,97339.59
2023-04-11T07:02:01.156Z,97341.88
2023-04-11T07:04:29.575Z,97341.45
2023-04-11T07:06:57.918Z,97342.20
2023-04-11T07:09:26.075Z,97340.19
2023-04-11T07:11:54.282Z,97343.36
2023-04-11T07:14:22.406Z,97343.77
2023-04-11T07:16:50.724Z,97341.65
2023-04-11T07:19:19.089Z,97342.63
2023-04-11T07:21:48.997Z,97340.56
2023-04-11T07:24:18.749Z,97341.29
2023-04-11T07:26:47.086Z,97341.88
2023-04-11T07:29:15.187Z,97342.73
2023-04-11T07:31:45.430Z,97340.69
2023-04-11T07:34:13.554Z,97336.13
2023-04-11T07:36:42.348Z,97335.64
2023-04-11T07:39:14.217Z,97330.42
2023-04-11T07:41:42.563Z,97329.88
2023-04-11T07:44:10.942Z,97328.26
2023-04-11T07:46:39.035Z,97324.74
2023-04-11T07:49:07.366Z,97321.12
2023-04-11T07:51:35.424Z,97323.95
2023-04-11T07:54:03.935Z,97322.84
2023-04-11T07:56:32.067Z,97319.58
2023-04-11T07:59:01.418Z,97313.90
2023-04-11T08:01:29.861Z,97312.02
2023-04-11T08:03:58.671Z,97312.84
2023-04-11T08:06:30.247Z,97306.69
2023-04-11T08:08:59.030Z,97302.38
2023-04-11T08:11:27.163Z,97300.50
2023-04-11T08:13:55.706Z,97295.43
2023-04-11T08:16:24.728Z,97295.73
2023-04-11T08:18:52.987Z,97293.85
2023-04-11T08:21:23.787Z,97291.95
2023-04-11T08:23:52.233Z,97281.90
2023-04-11T08:26:21.246Z,97277.02
2023-04-11T08:28:49.688Z,97273.34
2023-04-11T08:31:18.291Z,97270.38
2023-04-11T08:33:46.496Z,97268.06
2023-04-11T08:36:14.689Z,97265.04
2023-04-11T08:38:42.822Z,97259.95
2023-04-11T08:41:11.568Z,97254.02
2023-04-11T08:43:44.048Z,97258.79
2023-04-11T08:46:13.252Z,97258.61
2023-04-11T08:48:41.271Z,97262.30
2023-04-11T08:51:09.391Z,97256.00
2023-04-11T08:53:39.221Z,97252.08
2023-04-11T08:56:17.610Z,97248.23
2023-04-11T08:58:47.353Z,97243.19
2023-04-11T09:01:27.454Z,97240.27
2023-04-11T09:03:56.367Z,97228.14
2023-04-11T09:06:24.998Z,97226.77
2023-04-11T09:08:53.215Z,97220.67
2023-04-11T09:11:21.780Z,97218.15
2023-04-11T09:14:15.215Z,97211.66
2023-04-11T09:17:05.007Z,97198.48
2023-04-11T09:19:35.189Z,97192.77
2023-04-11T09:22:07.362Z,97188.20
2023-04-11T09:24:37.318Z,97186.07
2023-04-11T09:27:17.004Z,97180.27
2023-04-11T09:29:47.604Z,97182.29
2023-04-11T09:32:31.952Z,97179.91
2023-04-11T09:35:21.033Z,97170.86
2023-04-11T09:37:52.803Z,97165.05
2023-04-11T09:40:31.931Z,97164.45
2023-04-11T09:43:02.961Z,97161.50
2023-04-11T09:45:38.277Z,97162.67
2023-04-11T09:48:09.574Z,97160.18
2023-04-11T09:50:38.747Z,97153.63
2023-04-11T09:53:07.083Z,97146.89
2023-04-11T09:55:38.144Z,97142.70
2023-04-11T09:58:10.596Z,97137.46
2023-04-11T10:00:41.373Z,97134.18
2023-04-11T10:03:09.564Z,97128.93
2023-04-11T10:05:39.161Z,97124.60
2023-04-11T10:08:26.336Z,97118.80
2023-04-11T10:10:54.605Z,97118.94
2023-04-11T10:13:43.662Z,97113.20
2023-04-11T10:16:18.954Z,97108.19
2023-04-11T10:18:53.301Z,97104.91
2023-04-11T10:21:28.040Z,97097.31
2023-04-11T10:24:17.528Z,97093.15
2023-04-11T10:26:50.522Z,97091.23
2023-04-11T10:29:34.759Z,97088.09
2023-04-11T10:32:24.982Z,97089.71
2023-04-11T10:34:53.586Z,97084.42
2023-04-11T10:37:33.615Z,97083.27
2023-04-11T10:40:10.443Z,97075.45
2023-04-11T10:42:43.771Z,97078.04
2023-04-11T10:45:30.514Z,97074.63
2023-04-11T10:47:58.856Z,97071.88
2023-04-11T10:50:31.911Z,97067.01
2023-04-11T10:53:06.694Z,97060.96
2023-04-11T10:55:46.270Z,97060.50
2023-04-11T10:58:22.462Z,97055.08
2023-04-11T11:00:54.358Z,97054.68
2023-04-11T11:03:32.235Z,97049.23
2023-04-11T11:06:03.074Z,97048.74
2023-04-11T11:08:38.245Z,97041.86
2023-04-11T11:11:09.720Z,97035.77
2023-04-11T11:13:53.140Z,97033.31
2023-04-11T11:16:24.340Z,97031.40
2023-04-11T11:18:54.983Z,97031.89
2023-04-11T11:21:28.573Z,97020.77
2023-04-11T11:24:03.766Z,97013.34
2023-04-11T11:26:44.021Z,97005.48
2023-04-11T11:29:13.465Z,97006.73
2023-04-11T11:31:45.999Z,97003.93
2023-04-11T11:34:26.330Z,97003.70
2023-04-11T11:36:56.610Z,96999.17
2023-04-11T11:39:26.018Z,96996.23
2023-04-11T11:41:54.586Z,96990.31
2023-04-11T11:44:30.365Z,96988.10
2023-04-11T11:47:06.859Z,96979.09
2023-04-11T11:49:51.464Z,96974.17
2023-04-11T11:52:43.839Z,96966.75
2023-04-11T11:55:18.898Z,96963.08
2023-04-11T11:57:49.118Z,96963.67
2023-04-11T12:00:26.178Z,96958.76
2023-04-11T12:02:56.681Z,96949.87
2023-04-11T12:05:30.463Z,96951.79
2023-04-11T12:08:09.138Z,96942.27
2023-04-11T12:10:46.845Z,96944.58
2023-04-11T12:13:27.278Z,96946.43
2023-04-11T12:15:57.873Z,96948.82
2023-04-11T12:18:28.643Z,96949.82
2023-04-11T12:20:58.640Z,96950.83
2023-04-11T12:23:26.838Z,96949.86
2023-04-11T12:25:55.393Z,96942.02
2023-04-11T12:28:23.785Z,96937.08
2023-04-11T12:30:52.134Z,96934.04
2023-04-11T12:33:22.366Z,96932.19
2023-04-11T12:35:51.416Z,96923.75
2023-04-11T12:38:19.943Z,96920.95
2023-04-11T12:40:50.999Z,96916.08
2023-04-11T12:43:22.580Z,96910.95
2023-04-11T12:45:51.543Z,96906.05
2023-04-11T12:48:19.821Z,96902.30
2023-04-11T12:50:48.072Z,96899.11
2023-04-11T12:53:16.429Z,96894.00
2023-04-11T12:55:45.882Z,96891.59
2023-04-11T12:58:14.297Z,96886.17
2023-04-11T13:00:42.843Z,96880.05
2023-04-11T13:03:11.958Z,96871.11
2023-04-11T13:05:40.688Z,96869.25
2023-04-11T13:08:09.082Z,96867.84
2023-04-11T13:10:37.354Z,96856.52
2023-04-11T13:13:17.450Z,96846.32
2023-04-11T13:15:47.438Z,96838.56
2023-04-11T13:18:15.944Z,96836.78
2023-04-11T13:20:44.189Z,96841.21
2023-04-11T13:23:13.689Z,96839.23
2023-04-11T13:25:43.443Z,96838.84
2023-04-11T13:28:11.708Z,96837.36
2023-04-11T13:30:41.290Z,96836.98
2023-04-11T13:33:09.880Z,96836.45
2023-04-11T13:35:39.212Z,96836.25
2023-04-11T13:38:08.250Z,96827.10
2023-04-11T13:40:39.080Z,96833.02
2023-04-11T13:43:07.426Z,96828.97
2023-04-11T13:45:36.157Z,96830.58
2023-04-11T13:48:04.705Z,96827.77
2023-04-11T13:50:34.636Z,96819.24
2023-04-11T13:53:03.104Z,96822.04
2023-04-11T13:55:31.763Z,96823.54
2023-04-11T13:58:00.379Z,96822.35
2023-04-11T14:00:28.889Z,96820.62
2023-04-11T14:02:57.934Z,96819.59
2023-04-11T14:05:27.212Z,96821.55
2023-04-11T14:07:55.770Z,96817.36
2023-04-11T14:10:24.117Z,96815.37
2023-04-11T14:12:52.539Z,96817.14
2023-04-11T14:15:21.910Z,96817.14
2023-04-11T14:17:50.486Z,96810.60
2023-04-11T14:20:19.180Z,96808.54
2023-04-11T14:22:47.581Z,96808.20
2023-04-11T14:25:16.022Z,96807.02
2023-04-11T14:27:45.198Z,96802.38
2023-04-11T14:30:13.676Z,96796.69
2023-04-11T14:32:42.111Z,96793.70
2023-04-11T14:35:10.536Z,96793.89
2023-04-11T14:37:38.845Z,96793.98
2023-04-11T14:40:11.360Z,96794.94
2023-04-11T14:42:40.475Z,96792.41
2023-04-11T14:45:09.519Z,96790.48
2023-04-11T14:47:38.169Z,96788.80
2023-04-11T14:50:07.943Z,96787.63
2023-04-11T14:52:36.343Z,96786.33
2023-04-11T14:55:05.357Z,96785.46
2023-04-11T14:57:53.590Z,96784.30
2023-04-11T15:00:24.939Z,96785.02
2023-04-11T15:02:55.896Z,96784.69
2023-04-11T15:05:25.933Z,96784.60
2023-04-11T15:07:54.670Z,96783.69
2023-04-11T15:10:26.992Z,96784.65
2023-04-11T15:12:55.575Z,96780.73
2023-04-11T15:15:24.301Z,96783.67
2023-04-11T15:18:19.304Z,96778.67
2023-04-11T15:20:47.634Z,96777.34
2023-04-11T15:23:16.541Z,96776.99
2023-04-11T15:25:45.618Z,96780.88
2023-04-11T15:28:14.035Z,96777.32
2023-04-11T15:30:47.987Z,96774.64
2023-04-11T15:33:17.060Z,96774.23
2023-04-11T15:35:46.233Z,96771.20
2023-04-11T15:38:15.485Z,96774.70
2023-04-11T15:40:44.072Z,96767.60
2023-04-11T15:43:12.737Z,96766.69
2023-04-11T15:45:44.449Z,96763.91
2023-04-11T15:48:13.511Z,96766.58
2023-04-11T15:50:43.318Z,96765.21
2023-04-11T15:53:12.558Z,96765.71
2023-04-11T15:55:42.955Z,96767.40
2023-04-11T15:58:11.436Z,96765.30
2023-04-11T16:00:42.366Z,96763.67
2023-04-11T16:03:11.409Z,96764.37
2023-04-11T16:05:43.387Z,96761.87
2023-04-11T16:08:12.282Z,96768.36
2023-04-11T16:10:40.627Z,96768.77
2023-04-11T16:13:09.475Z,96763.47
2023-04-11T16:15:38.258Z,96757.27
2023-04-11T16:18:07.219Z,96760.11
2023-04-11T16:20:36.054Z,96761.98
2023-04-11T16:23:04.436Z,96759.42
2023-04-11T16:25:32.749Z,96759.40
2023-04-11T16:28:00.802Z,96758.11
2023-04-11T16:30:28.927Z,96752.80
2023-04-11T16:32:59.501Z,96759.36
2023-04-11T16:35:28.272Z,96767.04
2023-04-11T16:37:56.576Z,96763.70
2023-04-11T16:40:25.419Z,96769.75
2023-04-11T16:42:53.714Z,96769.42
2023-04-11T16:45:22.297Z,96770.61
2023-04-11T16:47:50.874Z,96779.20
2023-04-11T16:50:19.773Z,96779.38
2023-04-11T16:52:48.296Z,96769.70
2023-04-11T16:55:16.990Z,96772.55
2023-04-11T16:57:45.209Z,96776.98
2023-04-11T17:00:17.432Z,96785.25
2023-04-11T17:02:47.238Z,96786.42
2023-04-11T17:05:19.203Z,96784.86
2023-04-11T17:07:48.172Z,96778.90
2023-04-11T17:10:17.055Z,96792.20
2023-04-11T17:12:45.312Z,96793.60
2023-04-11T17:15:13.379Z,96793.39
2023-04-11T17:17:42.131Z,96789.69
2023-04-11T17:20:11.963Z,96793.48
2023-04-11T17:22:43.719Z,96795.52
2023-04-11T17:25:12.332Z,96792.45
2023-04-11T17:27:41.812Z,96795.94
2023-04-11T17:30:12.330Z,96795.94
2023-04-11T17:32:41.213Z,96801.73
2023-04-11T17:35:11.657Z,96797.56
2023-04-11T17:37:40.232Z,96795.64
2023-04-11T17:40:12.925Z,96797.90
2023-04-11T17:42:42.114Z,96799.57
2023-04-11T17:47:46.617Z,96812.77
2023-04-11T17:50:15.560Z,96817.58
2023-04-11T17:52:45.323Z,96815.43
2023-04-11T17:55:16.012Z,96819.75
2023-04-11T17:57:51.466Z,96818.14
2023-04-11T18:00:26.110Z,96818.21
2023-04-11T18:02:58.122Z,96818.16
2023-04-11T18:05:29.460Z,96822.48
2023-04-11T18:08:00.336Z,96824.64
2023-04-11T18:10:31.031Z,96824.70
2023-04-11T18:12:59.760Z,96827.45
2023-04-11T18:15:28.280Z,96832.64
2023-04-11T18:17:56.916Z,96838.83
2023-04-11T18:20:25.204Z,96842.37
2023-04-11T18:22:54.958Z,96841.68
2023-04-11T18:25:23.527Z,96843.75
2023-04-11T18:27:52.253Z,96838.11
2023-04-11T18:30:21.026Z,96840.09
2023-04-11T18:32:51.911Z,96835.79
2023-04-11T18:35:21.334Z,96834.60
2023-04-11T18:37:49.814Z,96833.06
2023-04-11T18:40:18.580Z,96828.30
2023-04-11T18:42:50.452Z,96824.02
2023-04-11T18:45:21.983Z,96821.41
2023-04-11T18:47:51.116Z,96821.54
2023-04-11T18:50:19.945Z,96825.03
2023-04-11T18:52:53.487Z,96826.48
2023-04-11T18:55:23.363Z,96824.13
2023-04-11T18:57:55.533Z,96826.39
2023-04-11T19:00:30.476Z,96826.08
2023-04-11T19:02:59.689Z,96826.44
2023-04-11T19:05:29.524Z,96821.90
2023-04-11T19:07:59.961Z,96820.30
2023-04-11T19:10:28.651Z,96818.66
2023-04-11T19:12:56.977Z,96810.28
2023-04-11T19:15:25.742Z,96805.29
2023-04-11T19:17:54.265Z,96805.94
2023-04-11T19:20:26.730Z,96806.31
2023-04-11T19:22:55.009Z,96804.33
2023-04-11T19:25:24.608Z,96802.83
2023-04-11T19:27:53.207Z,96802.92
2023-04-11T19:30:22.159Z,96801.02
2023-04-11T19:32:50.859Z,96798.23
2023-04-11T19:35:24.271Z,96799.20
2023-04-11T19:37:53.679Z,96797.09
2023-04-11T19:40:24.806Z,96796.22
2023-04-11T19:42:53.693Z,96795.13
2023-04-11T19:45:22.335Z,96791.08
2023-04-11T19:47:50.958Z,96789.30
2023-04-11T19:50:19.381Z,96787.39
2023-04-11T19:52:47.494Z,96783.04
2023-04-11T19:55:16.300Z,96785.13
2023-04-11T19:57:44.548Z,96783.48
2023-04-11T20:00:14.295Z,96779.31
2023-04-11T20:02:50.522Z,96776.77
2023-04-11T20:05:20.008Z,96774.10
2023-04-11T20:07:49.036Z,96771.38
2023-04-11T20:10:17.726Z,96770.45
2023-04-11T20:12:46.353Z,96772.54
2023-04-11T20:15:15.198Z,96772.08
2023-04-11T20:17:45.919Z,96763.03
2023-04-11T20:20:15.915Z,96763.39
2023-04-11T20:22:45.048Z,96764.55
2023-04-11T20:25:13.635Z,96765.97
2023-04-11T20:27:42.903Z,96766.09
2023-04-11T20:30:12.327Z,96765.29
2023-04-11T20:32:41.477Z,96765.55
2023-04-11T20:35:12.453Z,96764.61
2023-04-11T20:37:43.909Z,96760.52
2023-04-11T20:40:14.413Z,96756.75
2023-04-11T20:42:46.057Z,96756.70
2023-04-11T20:45:21.923Z,96754.08
2023-04-11T20:47:50.586Z,96751.84
2023-04-11T20:50:20.125Z,96751.17
2023-04-11T20:52:52.866Z,96751.09
2023-04-11T20:55:21.259Z,96751.55
2023-04-11T20:57:49.865Z,96751.61
2023-04-11T21:00:20.094Z,96755.71
2023-04-11T21:02:50.798Z,96749.13
2023-04-11T21:05:25.312Z,96750.73
2023-04-11T21:07:58.969Z,96749.71
2023-04-11T21:10:27.585Z,96753.06
2023-04-11T21:12:55.962Z,96749.84
2023-04-11T21:15:24.329Z,96750.52
2023-04-11T21:17:52.591Z,96755.59
2023-04-11T21:20:22.525Z,96754.23
2023-04-11T21:22:55.417Z,96756.38
2023-04-11T21:25:24.347Z,96758.92
2023-04-11T21:27:52.752Z,96755.34
2023-04-11T21:30:21.109Z,96753.83
2023-04-11T21:32:49.449Z,96751.25
2023-04-11T21:35:17.729Z,96747.27
2023-04-11T21:37:48.490Z,96747.45
2023-04-11T21:40:17.601Z,96742.72
2023-04-11T21:42:46.279Z,96744.03
2023-04-11T21:45:14.544Z,96737.11
2023-04-11T21:47:43.026Z,96736.63
2023-04-11T21:50:11.725Z,96734.94
2023-04-11T21:52:40.436Z,96736.61
2023-04-11T21:55:09.298Z,96733.27
2023-04-11T21:57:37.786Z,96730.75
2023-04-11T22:00:08.541Z,96730.51
2023-04-11T22:02:42.788Z,96726.30
2023-04-11T22:05:12.870Z,96719.35
2023-04-11T22:07:47.545Z,96716.23
2023-04-11T22:10:22.750Z,96711.52
2023-04-11T22:12:54.145Z,96713.38
2023-04-11T22:15:24.484Z,96706.53
2023-04-11T22:17:56.599Z,96705.20
2023-04-11T22:20:24.805Z,96702.33
2023-04-11T22:22:53.017Z,96700.80
2023-04-11T22:25:22.748Z,96698.73
2023-04-11T22:27:54.709Z,96697.38
2023-04-11T22:30:24.731Z,96696.76
2023-04-11T22:32:54.423Z,96694.06
2023-04-11T22:35:26.279Z,96695.21
2023-04-11T22:37:57.362Z,96695.85
2023-04-11T22:40:25.714Z,96692.48
2023-04-11T22:42:54.219Z,96687.89
2023-04-11T22:45:23.513Z,96684.87
2023-04-11T22:47:54.575Z,96683.35
2023-04-11T22:50:23.467Z,96680.50
2023-04-11T22:52:51.668Z,96679.71
2023-04-11T22:55:21.391Z,96677.15
2023-04-11T22:57:50.448Z,96675.09
2023-04-11T23:00:19.361Z,96669.92
2023-04-11T23:02:48.073Z,96666.44
2023-04-11T23:05:16.910Z,96665.05
2023-04-11T23:07:45.419Z,96659.64
2023-04-11T23:10:17.253Z,96654.93
2023-04-11T23:12:46.014Z,96652.52
2023-04-11T23:15:14.628Z,96652.09
2023-04-11T23:17:42.891Z,96650.78
2023-04-11T23:20:13.971Z,96645.66
2023-04-11T23:22:44.159Z,96640.91
2023-04-11T23:25:14.368Z,96632.15
2023-04-11T23:27:43.869Z,96629.61
2023-04-11T23:30:15.286Z,96624.66
2023-04-11T23:32:43.747Z,96623.89
2023-04-11T23:35:12.013Z,96624.58
2023-04-11T23:37:41.065Z,96621.11
2023-04-11T23:40:11.191Z,96616.91
2023-04-11T23:42:41.135Z,96614.80
2023-04-11T23:45:11.042Z,96611.67
2023-04-11T23:47:39.058Z,96608.00
2023-04-11T23:50:08.418Z,96605.66
2023-04-11T23:52:36.675Z,96601.98
2023-04-11T23:55:05.243Z,96599.92
2023-04-11T23:57:33.331Z,96593.73
